sensor_id;sensor_type;location;lat;lon;timestamp;temperature;humidity
32334;DHT22;18810;53.040;8.850;2023-01-15T00:04:06;7.20;99.90
32334;DHT22;18810;53.040;8.850;2023-01-15T00:06:35;7.20;99.90
32334;DHT22;18810;53.040;8.850;2023-01-15T00:13:54;7.30;99.90
32334;DHT22;18810;53.040;8.850;2023-01-15T00:16:21;7.20;99.90
32334;DHT22;18810;53.040;8.850;2023-01-15T00:18:58;7.20;99.90
32334;DHT22;18810;53.040;8.850;2023-01-15T00:21:25;7.20;99.90
32334;DHT22;18810;53.040;8.850;2023-01-15T00:26:37;7.40;99.90
32334;DHT22;18810;53.040;8.850;2023-01-15T00:29:23;7.80;99.90
32334;DHT22;18810;53.040;8.850;2023-01-15T00:34:22;7.20;99.90
32334;DHT22;18810;53.040;8.850;2023-01-15T00:39:14;7.20;99.90
32334;DHT22;18810;53.040;8.850;2023-01-15T00:41:39;7.20;99.90
32334;DHT22;18810;53.040;8.850;2023-01-15T00:44:05;7.20;99.90
32334;DHT22;18810;53.040;8.850;2023-01-15T00:46:38;7.20;99.90
32334;DHT22;18810;53.040;8.850;2023-01-15T00:49:04;7.20;99.90
32334;DHT22;18810;53.040;8.850;2023-01-15T00:53:56;7.10;99.90
32334;DHT22;18810;53.040;8.850;2023-01-15T01:06:06;7.20;99.90
32334;DHT22;18810;53.040;8.850;2023-01-15T01:08:31;7.30;99.90
32334;DHT22;18810;53.040;8.850;2023-01-15T01:11:17;7.30;99.90
32334;DHT22;18810;53.040;8.850;2023-01-15T01:13:44;7.20;99.90
32334;DHT22;18810;53.040;8.850;2023-01-15T01:16:30;7.20;99.90
32334;DHT22;18810;53.040;8.850;2023-01-15T01:18:58;7.10;99.90
32334;DHT22;18810;53.040;8.850;2023-01-15T01:21:25;7.20;99.90
32334;DHT22;18810;53.040;8.850;2023-01-15T01:26:17;7.20;99.90
32334;DHT22;18810;53.040;8.850;2023-01-15T01:28:48;8.00;99.90
32334;DHT22;18810;53.040;8.850;2023-01-15T01:31:14;8.10;99.90
32334;DHT22;18810;53.040;8.850;2023-01-15T01:36:05;7.30;99.90
32334;DHT22;18810;53.040;8.850;2023-01-15T01:40:57;7.20;99.90
32334;DHT22;18810;53.040;8.850;2023-01-15T01:43:25;7.20;99.90
32334;DHT22;18810;53.040;8.850;2023-01-15T01:45:52;7.20;99.90
32334;DHT22;18810;53.040;8.850;2023-01-15T01:48:20;7.20;99.90
32334;DHT22;18810;53.040;8.850;2023-01-15T01:50:48;7.30;99.90
32334;DHT22;18810;53.040;8.850;2023-01-15T01:53:26;7.20;99.90
32334;DHT22;18810;53.040;8.850;2023-01-15T01:58:20;7.20;99.90
32334;DHT22;18810;53.040;8.850;2023-01-15T02:00:48;7.30;99.90
32334;DHT22;18810;53.040;8.850;2023-01-15T02:03:17;7.20;99.90
32334;DHT22;18810;53.040;8.850;2023-01-15T02:05:54;7.30;99.90
32334;DHT22;18810;53.040;8.850;2023-01-15T02:08:21;7.20;99.90
32334;DHT22;18810;53.040;8.850;2023-01-15T02:10:51;7.20;99.90
32334;DHT22;18810;53.040;8.850;2023-01-15T02:13:38;7.30;99.90
32334;DHT22;18810;53.040;8.850;2023-01-15T02:16:20;7.30;99.90
32334;DHT22;18810;53.040;8.850;2023-01-15T02:18:57;7.30;99.90
32334;DHT22;18810;53.040;8.850;2023-01-15T02:22:47;7.60;99.90
32334;DHT22;18810;53.040;8.850;2023-01-15T02:25:05;7.30;99.90
32334;DHT22;18810;53.040;8.850;2023-01-15T02:27:49;7.20;99.90
32334;DHT22;18810;53.040;8.850;2023-01-15T02:30:23;7.30;99.90
32334;DHT22;18810;53.040;8.850;2023-01-15T02:33:15;7.30;99.90
32334;DHT22;18810;53.040;8.850;2023-01-15T02:35:55;7.20;99.90
32334;DHT22;18810;53.040;8.850;2023-01-15T02:38:35;7.30;99.90
32334;DHT22;18810;53.040;8.850;2023-01-15T02:41:03;7.30;99.90
32334;DHT22;18810;53.040;8.850;2023-01-15T02:43:34;7.30;99.90
32334;DHT22;18810;53.040;8.850;2023-01-15T02:46:02;7.40;99.90
32334;DHT22;18810;53.040;8.850;2023-01-15T02:48:32;7.30;99.90
32334;DHT22;18810;53.040;8.850;2023-01-15T02:51:02;7.30;99.90
32334;DHT22;18810;53.040;8.850;2023-01-15T02:53:30;7.30;99.90
32334;DHT22;18810;53.040;8.850;2023-01-15T02:56:06;7.20;99.90
32334;DHT22;18810;53.040;8.850;2023-01-15T02:58:36;7.20;99.90
32334;DHT22;18810;53.040;8.850;2023-01-15T03:01:27;7.20;99.90
32334;DHT22;18810;53.040;8.850;2023-01-15T03:04:02;7.30;99.90
32334;DHT22;18810;53.040;8.850;2023-01-15T03:06:40;7.20;99.90
32334;DHT22;18810;53.040;8.850;2023-01-15T03:09:07;7.20;99.90
32334;DHT22;18810;53.040;8.850;2023-01-15T03:11:42;7.20;99.90
32334;DHT22;18810;53.040;8.850;2023-01-15T03:16:40;7.20;99.90
32334;DHT22;18810;53.040;8.850;2023-01-15T03:19:16;7.20;99.90
32334;DHT22;18810;53.040;8.850;2023-01-15T03:24:17;7.30;99.90
32334;DHT22;18810;53.040;8.850;2023-01-15T03:26:48;7.30;99.90
32334;DHT22;18810;53.040;8.850;2023-01-15T03:29:14;7.40;99.90
32334;DHT22;18810;53.040;8.850;2023-01-15T03:31:40;7.30;99.90
32334;DHT22;18810;53.040;8.850;2023-01-15T03:34:06;7.60;99.90
32334;DHT22;18810;53.040;8.850;2023-01-15T03:36:32;7.30;99.90
32334;DHT22;18810;53.040;8.850;2023-01-15T03:38:58;7.20;99.90
32334;DHT22;18810;53.040;8.850;2023-01-15T03:41:43;7.90;99.90
32334;DHT22;18810;53.040;8.850;2023-01-15T03:44:48;7.20;99.90
32334;DHT22;18810;53.040;8.850;2023-01-15T03:47:19;7.20;99.90
32334;DHT22;18810;53.040;8.850;2023-01-15T03:52:45;7.20;99.90
32334;DHT22;18810;53.040;8.850;2023-01-15T03:57:58;7.10;99.90
32334;DHT22;18810;53.040;8.850;2023-01-15T04:02:53;7.10;99.90
32334;DHT22;18810;53.040;8.850;2023-01-15T04:05:20;7.20;99.90
32334;DHT22;18810;53.040;8.850;2023-01-15T04:07:47;7.20;99.90
32334;DHT22;18810;53.040;8.850;2023-01-15T04:15:07;7.20;99.90
32334;DHT22;18810;53.040;8.850;2023-01-15T04:19:58;7.30;99.90
32334;DHT22;18810;53.040;8.850;2023-01-15T04:27:23;7.40;99.90
32334;DHT22;18810;53.040;8.850;2023-01-15T04:29:51;7.60;99.90
32334;DHT22;18810;53.040;8.850;2023-01-15T04:44:46;7.40;99.90
32334;DHT22;18810;53.040;8.850;2023-01-15T04:47:11;7.40;99.90
32334;DHT22;18810;53.040;8.850;2023-01-15T04:49:37;7.40;99.90
32334;DHT22;18810;53.040;8.850;2023-01-15T04:52:03;7.30;99.90
32334;DHT22;18810;53.040;8.850;2023-01-15T04:59:23;7.30;99.90
32334;DHT22;18810;53.040;8.850;2023-01-15T05:09:07;7.30;99.90
32334;DHT22;18810;53.040;8.850;2023-01-15T05:11:37;7.30;99.90
32334;DHT22;18810;53.040;8.850;2023-01-15T05:14:04;7.30;99.90
32334;DHT22;18810;53.040;8.850;2023-01-15T05:16:30;7.50;99.90
32334;DHT22;18810;53.040;8.850;2023-01-15T05:19:00;7.40;99.90
32334;DHT22;18810;53.040;8.850;2023-01-15T05:21:32;7.20;99.90
32334;DHT22;18810;53.040;8.850;2023-01-15T05:24:00;7.20;99.90
32334;DHT22;18810;53.040;8.850;2023-01-15T05:26:30;7.30;99.90
32334;DHT22;18810;53.040;8.850;2023-01-15T05:28:57;7.20;99.90
32334;DHT22;18810;53.040;8.850;2023-01-15T05:31:23;7.40;99.90
32334;DHT22;18810;53.040;8.850;2023-01-15T05:33:50;7.30;99.90
32334;DHT22;18810;53.040;8.850;2023-01-15T05:36:19;7.20;99.90
32334;DHT22;18810;53.040;8.850;2023-01-15T05:41:13;7.20;99.90
32334;DHT22;18810;53.040;8.850;2023-01-15T05:44:04;7.30;99.90
32334;DHT22;18810;53.040;8.850;2023-01-15T05:46:32;7.20;99.90
32334;DHT22;18810;53.040;8.850;2023-01-15T05:49:02;7.20;99.90
32334;DHT22;18810;53.040;8.850;2023-01-15T05:51:28;7.20;99.90
32334;DHT22;18810;53.040;8.850;2023-01-15T05:53:56;7.20;99.90
32334;DHT22;18810;53.040;8.850;2023-01-15T06:01:14;7.20;99.90
32334;DHT22;18810;53.040;8.850;2023-01-15T06:06:09;7.20;99.90
32334;DHT22;18810;53.040;8.850;2023-01-15T06:15:58;7.20;99.90
32334;DHT22;18810;53.040;8.850;2023-01-15T06:28:09;7.10;99.90
32334;DHT22;18810;53.040;8.850;2023-01-15T06:30:37;7.10;99.90
32334;DHT22;18810;53.040;8.850;2023-01-15T06:33:03;7.10;99.90
32334;DHT22;18810;53.040;8.850;2023-01-15T06:40:20;7.00;99.90
32334;DHT22;18810;53.040;8.850;2023-01-15T06:45:39;7.00;99.90
32334;DHT22;18810;53.040;8.850;2023-01-15T06:48:25;7.00;99.90
32334;DHT22;18810;53.040;8.850;2023-01-15T06:50:51;6.90;99.90
32334;DHT22;18810;53.040;8.850;2023-01-15T06:53:18;6.90;99.90
32334;DHT22;18810;53.040;8.850;2023-01-15T06:58:10;6.80;99.90
32334;DHT22;18810;53.040;8.850;2023-01-15T07:00:36;6.90;99.90
32334;DHT22;18810;53.040;8.850;2023-01-15T07:03:04;6.90;99.90
32334;DHT22;18810;53.040;8.850;2023-01-15T07:07:59;6.80;99.90
32334;DHT22;18810;53.040;8.850;2023-01-15T07:20:09;6.80;99.90
32334;DHT22;18810;53.040;8.850;2023-01-15T07:22:35;6.80;99.90
32334;DHT22;18810;53.040;8.850;2023-01-15T07:32:19;6.70;99.90
32334;DHT22;18810;53.040;8.850;2023-01-15T07:39:37;6.70;99.90
32334;DHT22;18810;53.040;8.850;2023-01-15T07:42:02;6.60;99.90
32334;DHT22;18810;53.040;8.850;2023-01-15T07:44:46;6.50;99.90
32334;DHT22;18810;53.040;8.850;2023-01-15T07:47:30;6.60;99.90
32334;DHT22;18810;53.040;8.850;2023-01-15T07:50:21;6.70;99.90
32334;DHT22;18810;53.040;8.850;2023-01-15T07:52:47;6.60;99.90
32334;DHT22;18810;53.040;8.850;2023-01-15T07:57:42;6.50;99.90
32334;DHT22;18810;53.040;8.850;2023-01-15T08:00:14;6.50;99.90
32334;DHT22;18810;53.040;8.850;2023-01-15T08:02:41;6.50;99.90
32334;DHT22;18810;53.040;8.850;2023-01-15T08:05:07;7.10;99.90
32334;DHT22;18810;53.040;8.850;2023-01-15T08:07:40;6.50;99.90
32334;DHT22;18810;53.040;8.850;2023-01-15T08:10:08;6.50;99.90
32334;DHT22;18810;53.040;8.850;2023-01-15T08:15:18;6.70;99.90
32334;DHT22;18810;53.040;8.850;2023-01-15T08:17:46;6.70;99.90
32334;DHT22;18810;53.040;8.850;2023-01-15T08:22:40;6.70;99.90
32334;DHT22;18810;53.040;8.850;2023-01-15T08:25:07;6.70;99.90
32334;DHT22;18810;53.040;8.850;2023-01-15T08:27:35;6.50;99.90
32334;DHT22;18810;53.040;8.850;2023-01-15T08:47:03;6.20;99.90
32334;DHT22;18810;53.040;8.850;2023-01-15T08:49:28;6.20;99.90
32334;DHT22;18810;53.040;8.850;2023-01-15T08:54:21;6.00;99.90
32334;DHT22;18810;53.040;8.850;2023-01-15T09:04:13;6.10;99.90
32334;DHT22;18810;53.040;8.850;2023-01-15T09:09:05;6.10;99.90
32334;DHT22;18810;53.040;8.850;2023-01-15T09:11:31;7.40;99.90
32334;DHT22;18810;53.040;8.850;2023-01-15T09:13:56;6.10;99.90
32334;DHT22;18810;53.040;8.850;2023-01-15T09:18:48;6.00;99.90
32334;DHT22;18810;53.040;8.850;2023-01-15T09:21:14;6.10;99.90
32334;DHT22;18810;53.040;8.850;2023-01-15T09:28:33;6.50;99.90
32334;DHT22;18810;53.040;8.850;2023-01-15T09:30:59;6.70;99.90
32334;DHT22;18810;53.040;8.850;2023-01-15T09:35:51;7.00;99.90
32334;DHT22;18810;53.040;8.850;2023-01-15T09:38:19;7.00;99.90
32334;DHT22;18810;53.040;8.850;2023-01-15T09:40:50;7.30;99.90
32334;DHT22;18810;53.040;8.850;2023-01-15T09:55:13;7.90;99.90
32334;DHT22;18810;53.040;8.850;2023-01-15T09:57:39;8.30;99.90
32334;DHT22;18810;53.040;8.850;2023-01-15T10:00:07;7.90;99.90
32334;DHT22;18810;53.040;8.850;2023-01-15T10:08:00;8.00;99.90
32334;DHT22;18810;53.040;8.850;2023-01-15T10:10:32;8.00;99.90
32334;DHT22;18810;53.040;8.850;2023-01-15T10:13:07;8.00;99.90
32334;DHT22;18810;53.040;8.850;2023-01-15T10:15:44;8.00;99.90
32334;DHT22;18810;53.040;8.850;2023-01-15T10:18:19;8.00;99.90
32334;DHT22;18810;53.040;8.850;2023-01-15T10:23:32;8.10;99.90
32334;DHT22;18810;53.040;8.850;2023-01-15T10:26:12;8.00;99.90
32334;DHT22;18810;53.040;8.850;2023-01-15T10:31:20;8.30;99.90
32334;DHT22;18810;53.040;8.850;2023-01-15T10:36:42;7.90;99.90
32334;DHT22;18810;53.040;8.850;2023-01-15T10:44:31;8.00;99.90
32334;DHT22;18810;53.040;8.850;2023-01-15T10:47:00;9.10;99.90
32334;DHT22;18810;53.040;8.850;2023-01-15T10:49:28;8.00;99.90
32334;DHT22;18810;53.040;8.850;2023-01-15T10:52:03;8.00;99.90
32334;DHT22;18810;53.040;8.850;2023-01-15T10:54:41;7.80;99.90
32334;DHT22;18810;53.040;8.850;2023-01-15T10:57:40;7.80;99.90
32334;DHT22;18810;53.040;8.850;2023-01-15T11:00:10;7.60;99.90
32334;DHT22;18810;53.040;8.850;2023-01-15T11:02:41;7.50;99.90
32334;DHT22;18810;53.040;8.850;2023-01-15T11:05:14;7.60;99.90
32334;DHT22;18810;53.040;8.850;2023-01-15T11:07:42;7.30;99.90
32334;DHT22;18810;53.040;8.850;2023-01-15T11:10:10;7.40;99.90
32334;DHT22;18810;53.040;8.850;2023-01-15T11:12:39;7.20;99.90
32334;DHT22;18810;53.040;8.850;2023-01-15T11:15:25;7.10;99.90
32334;DHT22;18810;53.040;8.850;2023-01-15T11:18:30;7.20;99.90
32334;DHT22;18810;53.040;8.850;2023-01-15T11:21:18;7.20;99.90
32334;DHT22;18810;53.040;8.850;2023-01-15T11:23:45;7.30;99.90
32334;DHT22;18810;53.040;8.850;2023-01-15T11:26:24;7.40;99.90
32334;DHT22;18810;53.040;8.850;2023-01-15T11:28:52;7.40;99.90
32334;DHT22;18810;53.040;8.850;2023-01-15T11:31:18;7.40;99.90
32334;DHT22;18810;53.040;8.850;2023-01-15T11:33:56;8.20;99.90
32334;DHT22;18810;53.040;8.850;2023-01-15T11:36:24;7.00;99.90
32334;DHT22;18810;53.040;8.850;2023-01-15T11:38:51;6.80;99.90
32334;DHT22;18810;53.040;8.850;2023-01-15T11:43:53;6.80;99.90
32334;DHT22;18810;53.040;8.850;2023-01-15T11:46:37;6.90;99.90
32334;DHT22;18810;53.040;8.850;2023-01-15T11:49:21;6.90;99.90
32334;DHT22;18810;53.040;8.850;2023-01-15T11:52:12;6.80;99.90
32334;DHT22;18810;53.040;8.850;2023-01-15T11:54:41;6.90;99.90
32334;DHT22;18810;53.040;8.850;2023-01-15T11:57:08;7.00;99.90
32334;DHT22;18810;53.040;8.850;2023-01-15T11:59:35;7.10;99.90
32334;DHT22;18810;53.040;8.850;2023-01-15T12:02:16;6.90;99.90
32334;DHT22;18810;53.040;8.850;2023-01-15T12:04:52;6.90;99.90
32334;DHT22;18810;53.040;8.850;2023-01-15T12:07:22;7.80;99.90
32334;DHT22;18810;53.040;8.850;2023-01-15T12:21:32;7.30;99.90
32334;DHT22;18810;53.040;8.850;2023-01-15T12:29:47;7.70;99.90
32334;DHT22;18810;53.040;8.850;2023-01-15T12:32:19;7.80;99.90
32334;DHT22;18810;53.040;8.850;2023-01-15T12:35:45;8.00;99.90
32334;DHT22;18810;53.040;8.850;2023-01-15T12:38:35;7.70;99.90
32334;DHT22;18810;53.040;8.850;2023-01-15T12:40:46;7.60;99.90
32334;DHT22;18810;53.040;8.850;2023-01-15T12:43:18;7.50;99.90
32334;DHT22;18810;53.040;8.850;2023-01-15T12:46:06;7.60;99.90
32334;DHT22;18810;53.040;8.850;2023-01-15T12:48:42;7.60;99.90
32334;DHT22;18810;53.040;8.850;2023-01-15T12:51:13;7.80;99.90
32334;DHT22;18810;53.040;8.850;2023-01-15T12:53:48;7.70;99.90
32334;DHT22;18810;53.040;8.850;2023-01-15T12:56:30;7.40;99.90
32334;DHT22;18810;53.040;8.850;2023-01-15T12:59:09;6.90;99.90
32334;DHT22;18810;53.040;8.850;2023-01-15T13:01:57;6.80;99.90
32334;DHT22;18810;53.040;8.850;2023-01-15T13:04:49;6.70;99.90
32334;DHT22;18810;53.040;8.850;2023-01-15T13:07:20;6.80;99.90
32334;DHT22;18810;53.040;8.850;2023-01-15T13:10:14;6.80;99.90
32334;DHT22;18810;53.040;8.850;2023-01-15T13:12:40;7.00;99.90
32334;DHT22;18810;53.040;8.850;2023-01-15T13:15:06;7.10;99.90
32334;DHT22;18810;53.040;8.850;2023-01-15T13:17:48;7.20;99.90
32334;DHT22;18810;53.040;8.850;2023-01-15T13:20:57;7.20;99.90
32334;DHT22;18810;53.040;8.850;2023-01-15T13:28:51;7.20;99.90
32334;DHT22;18810;53.040;8.850;2023-01-15T13:33:47;7.30;99.90
32334;DHT22;18810;53.040;8.850;2023-01-15T13:36:19;7.40;99.90
32334;DHT22;18810;53.040;8.850;2023-01-15T13:38:52;7.40;99.90
32334;DHT22;18810;53.040;8.850;2023-01-15T13:41:22;7.50;99.90
32334;DHT22;18810;53.040;8.850;2023-01-15T13:46:42;7.60;99.90
32334;DHT22;18810;53.040;8.850;2023-01-15T13:49:20;7.50;99.90
32334;DHT22;18810;53.040;8.850;2023-01-15T13:51:49;7.60;99.90
32334;DHT22;18810;53.040;8.850;2023-01-15T13:54:18;7.70;99.90
32334;DHT22;18810;53.040;8.850;2023-01-15T13:56:45;7.60;99.90
32334;DHT22;18810;53.040;8.850;2023-01-15T13:59:46;8.20;99.90
32334;DHT22;18810;53.040;8.850;2023-01-15T14:02:28;7.80;99.90
32334;DHT22;18810;53.040;8.850;2023-01-15T14:04:54;7.80;99.90
32334;DHT22;18810;53.040;8.850;2023-01-15T14:07:30;7.70;99.90
32334;DHT22;18810;53.040;8.850;2023-01-15T14:10:08;7.60;99.90
32334;DHT22;18810;53.040;8.850;2023-01-15T14:13:31;7.60;99.90
32334;DHT22;18810;53.040;8.850;2023-01-15T14:30:22;7.50;99.90
32334;DHT22;18810;53.040;8.850;2023-01-15T14:33:16;7.60;99.90
32334;DHT22;18810;53.040;8.850;2023-01-15T14:35:46;7.60;99.90
32334;DHT22;18810;53.040;8.850;2023-01-15T14:38:21;7.70;99.90
32334;DHT22;18810;53.040;8.850;2023-01-15T14:40:59;7.50;99.90
32334;DHT22;18810;53.040;8.850;2023-01-15T14:43:32;7.60;99.90
32334;DHT22;18810;53.040;8.850;2023-01-15T14:46:26;7.60;99.90
32334;DHT22;18810;53.040;8.850;2023-01-15T14:48:53;7.60;99.90
32334;DHT22;18810;53.040;8.850;2023-01-15T14:51:27;7.60;99.90
32334;DHT22;18810;53.040;8.850;2023-01-15T14:53:56;7.60;99.90
32334;DHT22;18810;53.040;8.850;2023-01-15T14:56:30;7.70;99.90
32334;DHT22;18810;53.040;8.850;2023-01-15T14:59:19;7.60;99.90
32334;DHT22;18810;53.040;8.850;2023-01-15T15:04:35;7.60;99.90
32334;DHT22;18810;53.040;8.850;2023-01-15T15:09:44;7.60;99.90
32334;DHT22;18810;53.040;8.850;2023-01-15T15:12:24;7.40;99.90
32334;DHT22;18810;53.040;8.850;2023-01-15T15:15:05;7.00;99.90
32334;DHT22;18810;53.040;8.850;2023-01-15T15:17:43;6.80;99.90
32334;DHT22;18810;53.040;8.850;2023-01-15T15:22:45;6.30;99.90
32334;DHT22;18810;53.040;8.850;2023-01-15T15:25:20;6.20;99.90
32334;DHT22;18810;53.040;8.850;2023-01-15T15:30:12;6.20;99.90
32334;DHT22;18810;53.040;8.850;2023-01-15T15:32:42;6.20;99.90
32334;DHT22;18810;53.040;8.850;2023-01-15T15:35:25;6.70;99.90
32334;DHT22;18810;53.040;8.850;2023-01-15T15:40:20;6.40;99.90
32334;DHT22;18810;53.040;8.850;2023-01-15T15:45:54;6.60;99.90
32334;DHT22;18810;53.040;8.850;2023-01-15T15:48:39;7.10;99.90
32334;DHT22;18810;53.040;8.850;2023-01-15T15:54:24;6.40;99.90
32334;DHT22;18810;53.040;8.850;2023-01-15T15:57:12;6.30;99.90
32334;DHT22;18810;53.040;8.850;2023-01-15T15:59:46;6.10;99.90
32334;DHT22;18810;53.040;8.850;2023-01-15T16:04:53;6.10;99.90
32334;DHT22;18810;53.040;8.850;2023-01-15T16:07:31;6.10;99.90
32334;DHT22;18810;53.040;8.850;2023-01-15T16:12:53;6.00;99.90
32334;DHT22;18810;53.040;8.850;2023-01-15T16:15:24;5.90;99.90
32334;DHT22;18810;53.040;8.850;2023-01-15T16:17:56;5.90;99.90
32334;DHT22;18810;53.040;8.850;2023-01-15T16:20:22;5.80;99.90
32334;DHT22;18810;53.040;8.850;2023-01-15T16:25:26;5.60;99.90
32334;DHT22;18810;53.040;8.850;2023-01-15T16:27:55;5.50;99.90
32334;DHT22;18810;53.040;8.850;2023-01-15T16:30:22;5.40;99.90
32334;DHT22;18810;53.040;8.850;2023-01-15T16:32:49;5.50;99.90
32334;DHT22;18810;53.040;8.850;2023-01-15T16:35:21;5.40;99.90
32334;DHT22;18810;53.040;8.850;2023-01-15T16:37:52;5.40;99.90
32334;DHT22;18810;53.040;8.850;2023-01-15T16:43:14;5.20;99.90
32334;DHT22;18810;53.040;8.850;2023-01-15T16:46:14;5.20;99.90
32334;DHT22;18810;53.040;8.850;2023-01-15T16:48:41;5.20;99.90
32334;DHT22;18810;53.040;8.850;2023-01-15T16:53:54;5.10;99.90
32334;DHT22;18810;53.040;8.850;2023-01-15T16:59:17;5.10;99.90
32334;DHT22;18810;53.040;8.850;2023-01-15T17:01:45;5.10;99.90
32334;DHT22;18810;53.040;8.850;2023-01-15T17:04:30;5.10;99.90
32334;DHT22;18810;53.040;8.850;2023-01-15T17:07:12;5.10;99.90
32334;DHT22;18810;53.040;8.850;2023-01-15T17:09:50;5.10;99.90
32334;DHT22;18810;53.040;8.850;2023-01-15T17:12:29;5.00;99.90
32334;DHT22;18810;53.040;8.850;2023-01-15T17:17:47;5.10;99.90
32334;DHT22;18810;53.040;8.850;2023-01-15T17:20:14;5.10;99.90
32334;DHT22;18810;53.040;8.850;2023-01-15T17:22:42;5.10;99.90
32334;DHT22;18810;53.040;8.850;2023-01-15T17:25:38;5.10;99.90
32334;DHT22;18810;53.040;8.850;2023-01-15T17:28:04;5.10;99.90
32334;DHT22;18810;53.040;8.850;2023-01-15T17:30:30;5.10;99.90
32334;DHT22;18810;53.040;8.850;2023-01-15T17:33:02;5.10;99.90
32334;DHT22;18810;53.040;8.850;2023-01-15T17:35:36;5.10;99.90
32334;DHT22;18810;53.040;8.850;2023-01-15T17:38:05;5.10;99.90
32334;DHT22;18810;53.040;8.850;2023-01-15T17:40:36;5.10;99.90
32334;DHT22;18810;53.040;8.850;2023-01-15T17:43:03;5.10;99.90
32334;DHT22;18810;53.040;8.850;2023-01-15T17:45:31;5.10;99.90
32334;DHT22;18810;53.040;8.850;2023-01-15T17:47:57;5.10;99.90
32334;DHT22;18810;53.040;8.850;2023-01-15T17:50:24;5.00;99.90
32334;DHT22;18810;53.040;8.850;2023-01-15T17:52:50;5.00;99.90
32334;DHT22;18810;53.040;8.850;2023-01-15T17:55:18;5.00;99.90
32334;DHT22;18810;53.040;8.850;2023-01-15T17:58:02;5.00;99.90
32334;DHT22;18810;53.040;8.850;2023-01-15T18:00:47;4.90;99.90
32334;DHT22;18810;53.040;8.850;2023-01-15T18:03:32;4.90;99.90
32334;DHT22;18810;53.040;8.850;2023-01-15T18:06:17;4.90;99.90
32334;DHT22;18810;53.040;8.850;2023-01-15T18:08:48;4.90;99.90
32334;DHT22;18810;53.040;8.850;2023-01-15T18:11:17;4.90;99.90
32334;DHT22;18810;53.040;8.850;2023-01-15T18:13:43;5.00;99.90
32334;DHT22;18810;53.040;8.850;2023-01-15T18:16:09;4.90;99.90
32334;DHT22;18810;53.040;8.850;2023-01-15T18:18:35;5.00;99.90
32334;DHT22;18810;53.040;8.850;2023-01-15T18:21:01;5.00;99.90
32334;DHT22;18810;53.040;8.850;2023-01-15T18:23:28;5.00;99.90
32334;DHT22;18810;53.040;8.850;2023-01-15T18:25:54;5.00;99.90
32334;DHT22;18810;53.040;8.850;2023-01-15T18:28:20;5.00;99.90
32334;DHT22;18810;53.040;8.850;2023-01-15T18:30:47;4.90;99.90
32334;DHT22;18810;53.040;8.850;2023-01-15T18:33:13;5.00;99.90
32334;DHT22;18810;53.040;8.850;2023-01-15T18:35:38;5.00;99.90
32334;DHT22;18810;53.040;8.850;2023-01-15T18:38:04;5.00;99.90
32334;DHT22;18810;53.040;8.850;2023-01-15T18:40:30;5.10;99.90
32334;DHT22;18810;53.040;8.850;2023-01-15T18:42:56;5.00;99.90
32334;DHT22;18810;53.040;8.850;2023-01-15T18:45:44;5.00;99.90
32334;DHT22;18810;53.040;8.850;2023-01-15T18:48:28;5.00;99.90
32334;DHT22;18810;53.040;8.850;2023-01-15T18:50:54;5.00;99.90
32334;DHT22;18810;53.040;8.850;2023-01-15T18:53:20;4.90;99.90
32334;DHT22;18810;53.040;8.850;2023-01-15T18:55:46;4.90;99.90
32334;DHT22;18810;53.040;8.850;2023-01-15T18:58:12;4.90;99.90
32334;DHT22;18810;53.040;8.850;2023-01-15T19:00:38;4.90;99.90
32334;DHT22;18810;53.040;8.850;2023-01-15T19:03:04;5.00;99.90
32334;DHT22;18810;53.040;8.850;2023-01-15T19:05:29;5.00;99.90
32334;DHT22;18810;53.040;8.850;2023-01-15T19:07:55;5.00;99.90
32334;DHT22;18810;53.040;8.850;2023-01-15T19:10:21;5.00;99.90
32334;DHT22;18810;53.040;8.850;2023-01-15T19:12:47;5.10;99.90
32334;DHT22;18810;53.040;8.850;2023-01-15T19:15:17;5.10;99.90
32334;DHT22;18810;53.040;8.850;2023-01-15T19:18:02;5.20;99.90
32334;DHT22;18810;53.040;8.850;2023-01-15T19:20:46;5.20;99.90
32334;DHT22;18810;53.040;8.850;2023-01-15T19:23:12;5.30;99.90
32334;DHT22;18810;53.040;8.850;2023-01-15T19:25:43;5.40;99.90
32334;DHT22;18810;53.040;8.850;2023-01-15T19:28:12;5.30;99.90
32334;DHT22;18810;53.040;8.850;2023-01-15T19:30:44;5.30;99.90
32334;DHT22;18810;53.040;8.850;2023-01-15T19:33:29;5.40;99.90
32334;DHT22;18810;53.040;8.850;2023-01-15T19:35:56;5.40;99.90
32334;DHT22;18810;53.040;8.850;2023-01-15T19:38:22;5.40;99.90
32334;DHT22;18810;53.040;8.850;2023-01-15T19:40:47;5.40;99.90
32334;DHT22;18810;53.040;8.850;2023-01-15T19:43:17;5.40;99.90
32334;DHT22;18810;53.040;8.850;2023-01-15T19:46:09;5.40;99.90
32334;DHT22;18810;53.040;8.850;2023-01-15T19:48:53;5.50;99.90
32334;DHT22;18810;53.040;8.850;2023-01-15T19:51:38;5.40;99.90
32334;DHT22;18810;53.040;8.850;2023-01-15T19:54:22;5.40;99.90
32334;DHT22;18810;53.040;8.850;2023-01-15T19:57:07;5.40;99.90
32334;DHT22;18810;53.040;8.850;2023-01-15T19:59:33;5.40;99.90
32334;DHT22;18810;53.040;8.850;2023-01-15T20:01:59;5.40;99.90
32334;DHT22;18810;53.040;8.850;2023-01-15T20:04:31;5.30;99.90
32334;DHT22;18810;53.040;8.850;2023-01-15T20:06:56;5.40;99.90
32334;DHT22;18810;53.040;8.850;2023-01-15T20:09:22;5.40;99.90
32334;DHT22;18810;53.040;8.850;2023-01-15T20:11:47;5.40;99.90
32334;DHT22;18810;53.040;8.850;2023-01-15T20:14:45;5.50;99.90
32334;DHT22;18810;53.040;8.850;2023-01-15T20:17:11;5.50;99.90
32334;DHT22;18810;53.040;8.850;2023-01-15T20:19:41;5.40;99.90
32334;DHT22;18810;53.040;8.850;2023-01-15T20:22:09;5.40;99.90
32334;DHT22;18810;53.040;8.850;2023-01-15T20:24:35;5.40;99.90
32334;DHT22;18810;53.040;8.850;2023-01-15T20:27:06;5.40;99.90
32334;DHT22;18810;53.040;8.850;2023-01-15T20:29:31;5.40;99.90
32334;DHT22;18810;53.040;8.850;2023-01-15T20:32:00;5.40;99.90
32334;DHT22;18810;53.040;8.850;2023-01-15T20:34:26;5.50;99.90
32334;DHT22;18810;53.040;8.850;2023-01-15T20:36:55;5.60;99.90
32334;DHT22;18810;53.040;8.850;2023-01-15T20:39:21;5.50;99.90
32334;DHT22;18810;53.040;8.850;2023-01-15T20:41:46;5.50;99.90
32334;DHT22;18810;53.040;8.850;2023-01-15T20:44:30;5.50;99.90
32334;DHT22;18810;53.040;8.850;2023-01-15T20:47:25;5.50;99.90
32334;DHT22;18810;53.040;8.850;2023-01-15T20:50:12;5.50;99.90
32334;DHT22;18810;53.040;8.850;2023-01-15T20:52:38;5.60;99.90
32334;DHT22;18810;53.040;8.850;2023-01-15T20:55:06;5.50;99.90
32334;DHT22;18810;53.040;8.850;2023-01-15T20:57:37;5.50;99.90
32334;DHT22;18810;53.040;8.850;2023-01-15T21:00:11;5.50;99.90
32334;DHT22;18810;53.040;8.850;2023-01-15T21:02:38;5.30;99.90
32334;DHT22;18810;53.040;8.850;2023-01-15T21:05:04;5.30;99.90
32334;DHT22;18810;53.040;8.850;2023-01-15T21:07:31;5.20;99.90
32334;DHT22;18810;53.040;8.850;2023-01-15T21:09:56;5.20;99.90
32334;DHT22;18810;53.040;8.850;2023-01-15T21:12:22;5.20;99.90
32334;DHT22;18810;53.040;8.850;2023-01-15T21:14:51;5.20;99.90
32334;DHT22;18810;53.040;8.850;2023-01-15T21:17:16;5.10;99.90
32334;DHT22;18810;53.040;8.850;2023-01-15T21:19:42;5.10;99.90
32334;DHT22;18810;53.040;8.850;2023-01-15T21:22:08;5.10;99.90
32334;DHT22;18810;53.040;8.850;2023-01-15T21:24:33;5.10;99.90
32334;DHT22;18810;53.040;8.850;2023-01-15T21:26:59;5.10;99.90